Time;durP1;ratioP1;P1;durP2;ratioP2;P2;SDS_P1;SDS_P2;PMS_P1;PMS_P2;Temp;Humidity;BMP_temperature;BMP_pressure;BME280_temperature;BME280_humidity;BME280_pressure;Samples;Min_cycle;Max_cycle;Signal;HPM_P1;HPM_P2
2021/03/04 00:01:45;;;;;;;122.63;47.92;;;;;;;2.31;95.47;102313.53;5046801;28;20028;-70
2021/03/04 00:04:10;;;;;;;114.40;46.42;;;;;;;2.30;95.16;102303.25;5050201;28;20513;-72
2021/03/04 00:06:36;;;;;;;107.60;43.92;;;;;;;2.32;95.26;102302.28;5039751;28;20152;-73
2021/03/04 00:09:02;;;;;;;104.28;40.95;;;;;;;2.32;94.88;102306.63;5075986;28;20032;-72
2021/03/04 00:11:27;;;;;;;103.28;42.67;;;;;;;2.27;95.45;102317.13;5064381;28;20036;-73
2021/03/04 00:13:53;;;;;;;109.22;44.83;;;;;;;2.23;95.67;102309.56;5050588;28;20035;-73
2021/03/04 00:16:18;;;;;;;125.68;49.13;;;;;;;2.23;95.71;102314.72;5045701;28;20025;-72
2021/03/04 00:18:44;;;;;;;121.50;49.95;;;;;;;2.21;95.41;102319.13;5069916;28;20099;-72
2021/03/04 00:21:09;;;;;;;104.22;45.63;;;;;;;2.26;95.74;102312.88;5058019;28;20101;-72
2021/03/04 00:23:35;;;;;;;103.97;46.00;;;;;;;2.23;95.79;102322.50;5035507;28;20067;-73
2021/03/04 00:26:01;;;;;;;108.40;48.63;;;;;;;2.21;95.75;102314.78;5047869;28;20041;-72
2021/03/04 00:28:26;;;;;;;101.78;47.13;;;;;;;2.35;95.44;102316.88;5038452;28;20051;-72
2021/03/04 00:30:52;;;;;;;104.03;46.85;;;;;;;2.25;95.98;102318.94;5072581;28;20051;-74
2021/03/04 00:33:17;;;;;;;106.85;48.90;;;;;;;2.22;96.30;102315.63;5054474;28;20036;-72
2021/03/04 00:35:42;;;;;;;120.90;51.13;;;;;;;2.13;96.59;102316.81;5065003;28;20029;-73
2021/03/04 00:38:08;;;;;;;112.85;47.65;;;;;;;2.20;96.42;102307.06;5063136;28;20111;-72
2021/03/04 00:40:34;;;;;;;107.65;44.72;;;;;;;2.29;95.92;102304.16;5066767;28;20047;-72
2021/03/04 00:42:59;;;;;;;107.20;45.75;;;;;;;2.24;96.72;102299.16;5057045;28;20044;-72
2021/03/04 00:45:25;;;;;;;110.63;46.00;;;;;;;2.28;96.45;102297.25;5063569;28;20665;-71
2021/03/04 00:47:51;;;;;;;123.55;49.70;;;;;;;2.28;96.67;102298.13;5037156;28;20032;-72
2021/03/04 00:50:18;;;;;;;124.78;48.78;;;;;;;2.22;96.72;102293.16;5059634;28;20037;-71
2021/03/04 00:52:44;;;;;;;120.32;48.80;;;;;;;2.23;96.62;102287.09;5052029;28;20029;-70
2021/03/04 00:55:10;;;;;;;122.13;47.28;;;;;;;2.27;96.71;102287.81;5030643;28;20037;-74
2021/03/04 00:57:35;;;;;;;112.55;47.90;;;;;;;2.33;96.37;102285.84;5062191;28;20448;-73
2021/03/04 01:00:01;;;;;;;125.15;49.58;;;;;;;2.27;96.37;102285.25;5067932;28;20123;-74
2021/03/04 01:02:27;;;;;;;125.80;50.00;;;;;;;2.24;96.99;102277.56;5067487;28;20056;-73
2021/03/04 01:04:52;;;;;;;143.05;53.80;;;;;;;2.21;97.45;102278.53;5061758;28;20552;-74
2021/03/04 01:07:18;;;;;;;158.95;61.80;;;;;;;2.12;97.88;102279.69;5041892;28;20044;-74
2021/03/04 01:09:43;;;;;;;180.07;64.47;;;;;;;2.20;97.83;102283.75;5067200;28;20033;-73
2021/03/04 01:12:09;;;;;;;165.90;61.53;;;;;;;2.27;97.82;102286.06;5066514;28;20450;-72
2021/03/04 01:14:35;;;;;;;160.57;58.65;;;;;;;2.25;97.63;102271.50;5056562;28;20033;-72
2021/03/04 01:17:01;;;;;;;140.10;59.05;;;;;;;2.20;97.61;102278.59;5060117;28;20523;-74
2021/03/04 01:19:26;;;;;;;130.35;53.50;;;;;;;2.06;97.28;102279.91;5058052;28;20449;-73
2021/03/04 01:21:52;;;;;;;122.18;52.55;;;;;;;1.89;97.29;102270.16;5028685;28;20048;-73
2021/03/04 01:24:17;;;;;;;133.85;55.63;;;;;;;1.85;97.50;102278.09;5028493;28;20079;-74
2021/03/04 01:26:43;;;;;;;137.85;55.53;;;;;;;1.80;97.42;102275.63;5048350;28;20037;-73
2021/03/04 01:29:08;;;;;;;131.95;53.72;;;;;;;1.84;97.48;102269.44;5050508;28;20032;-73
2021/03/04 01:31:34;;;;;;;152.18;57.60;;;;;;;1.68;97.76;102274.31;5079356;28;20514;-71
2021/03/04 01:33:59;;;;;;;126.30;54.33;;;;;;;1.73;97.78;102267.25;5040552;28;20037;-73
2021/03/04 01:36:25;;;;;;;133.95;52.38;;;;;;;1.69;97.75;102262.22;5050513;28;20040;-73
2021/03/04 01:38:50;;;;;;;128.73;50.80;;;;;;;1.60;97.60;102265.09;5066102;28;20107;-72
2021/03/04 01:41:16;;;;;;;122.95;47.08;;;;;;;1.45;97.71;102250.94;5047229;28;20120;-73
2021/03/04 01:43:41;;;;;;;114.30;46.03;;;;;;;1.48;97.46;102256.03;5050426;28;20102;-74
2021/03/04 01:46:07;;;;;;;118.63;47.72;;;;;;;1.39;97.70;102252.00;5051648;28;20037;-72
2021/03/04 01:48:33;;;;;;;100.80;42.55;;;;;;;1.45;97.65;102246.63;5053716;28;20121;-73
2021/03/04 01:50:58;;;;;;;98.22;41.63;;;;;;;1.57;97.41;102249.72;5066521;28;20098;-73
2021/03/04 01:53:24;;;;;;;110.43;45.55;;;;;;;1.53;97.05;102261.91;5039067;28;20045;-73
2021/03/04 01:55:50;;;;;;;96.93;41.05;;;;;;;1.48;97.51;102235.34;5050703;28;20661;-73
2021/03/04 01:58:16;;;;;;;88.60;37.60;;;;;;;1.39;97.43;102238.22;5028189;28;20524;-73
2021/03/04 02:04:22;;;;;;;74.85;31.38;;;;;;;1.41;97.46;102239.84;5070541;28;20797;-72
2021/03/04 02:07:06;;;;;;;76.40;29.98;;;;;;;1.40;97.26;102248.53;5069534;28;20048;-71
2021/03/04 02:09:34;;;;;;;68.13;29.42;;;;;;;1.36;97.54;102241.78;5065623;28;20136;-73
2021/03/04 02:12:07;;;;;;;57.65;26.15;;;;;;;1.42;97.43;102251.91;5061390;28;20028;-72
2021/03/04 02:14:39;;;;;;;67.88;28.85;;;;;;;1.47;96.93;102247.44;5030431;28;20051;-73
2021/03/04 02:17:09;;;;;;;63.35;27.23;;;;;;;1.41;96.90;102247.59;5066276;28;20043;-72
2021/03/04 02:19:40;;;;;;;47.47;22.77;;;;;;;1.46;96.34;102244.88;5026730;28;20062;-73
2021/03/04 02:22:25;;;;;;;45.50;20.98;;;;;;;1.41;96.23;102245.03;5049119;28;20036;-73
2021/03/04 02:25:09;;;;;;;38.03;19.80;;;;;;;1.33;96.15;102234.09;5053472;28;20473;-74
2021/03/04 02:27:36;;;;;;;38.05;19.67;;;;;;;1.26;96.41;102236.06;5061364;28;20033;-74
2021/03/04 02:30:15;;;;;;;35.17;18.77;;;;;;;1.34;96.48;102223.72;5061334;28;20063;-73
2021/03/04 02:32:51;;;;;;;40.78;19.90;;;;;;;1.30;96.62;102224.72;5069671;28;20044;-73
2021/03/04 02:35:25;;;;;;;38.00;18.60;;;;;;;1.43;95.98;102222.56;5049881;28;20037;-73
2021/03/04 02:38:05;;;;;;;36.40;18.45;;;;;;;1.29;96.42;102223.00;5066611;28;20083;-73
2021/03/04 02:40:32;;;;;;;32.13;16.25;;;;;;;1.34;96.02;102218.53;5063716;28;20037;-72
2021/03/04 02:43:00;;;;;;;31.83;16.20;;;;;;;1.40;96.13;102219.25;5069320;28;20074;-73
2021/03/04 02:45:27;;;;;;;24.98;13.32;;;;;;;1.20;95.74;102209.53;5055440;28;20724;-72
2021/03/04 02:47:53;;;;;;;22.77;12.20;;;;;;;1.27;95.24;102213.63;5086957;28;20040;-73
2021/03/04 02:50:21;;;;;;;21.92;11.25;;;;;;;1.31;95.13;102213.47;5065639;28;20033;-73
2021/03/04 02:52:47;;;;;;;18.83;11.55;;;;;;;1.33;94.61;102211.66;5048550;28;20040;-72
2021/03/04 02:55:14;;;;;;;18.02;10.27;;;;;;;1.28;95.15;102205.81;5065896;28;20127;-73
2021/03/04 02:57:42;;;;;;;20.83;11.02;;;;;;;1.21;94.76;102204.34;5057398;28;20033;-73
2021/03/04 03:00:12;;;;;;;20.55;11.10;;;;;;;1.26;94.83;102196.41;5069290;28;20064;-72
2021/03/04 03:02:39;;;;;;;18.00;10.75;;;;;;;1.21;95.05;102211.25;5082619;28;20032;-72
2021/03/04 03:05:06;;;;;;;22.88;11.10;;;;;;;1.12;95.56;102189.13;5081773;28;20036;-73
2021/03/04 03:07:39;;;;;;;21.60;12.05;;;;;;;1.10;95.49;102196.09;5064110;28;20394;-73
2021/03/04 03:10:05;;;;;;;28.92;12.63;;;;;;;1.10;96.12;102190.91;5066209;28;20068;-72
2021/03/04 03:12:33;;;;;;;28.48;13.25;;;;;;;1.28;95.98;102184.28;5063885;28;20040;-72
2021/03/04 03:15:00;;;;;;;27.85;13.02;;;;;;;1.22;96.02;102187.91;5068165;28;20044;-73
2021/03/04 03:17:26;;;;;;;26.10;12.35;;;;;;;1.16;95.61;102180.38;5070355;28;20115;-72
2021/03/04 03:19:51;;;;;;;21.88;10.68;;;;;;;1.27;95.39;102167.09;5052352;28;20105;-73
2021/03/04 03:22:17;;;;;;;19.10;11.18;;;;;;;1.20;95.72;102174.19;5061412;28;20040;-73
2021/03/04 03:24:42;;;;;;;20.63;11.32;;;;;;;1.26;95.21;102162.81;5052204;28;20459;-73
2021/03/04 03:27:09;;;;;;;27.33;14.00;;;;;;;1.19;95.38;102166.47;5057130;28;20037;-72
2021/03/04 03:29:34;;;;;;;26.25;13.50;;;;;;;1.28;96.08;102158.44;5063310;28;20419;-72
2021/03/04 03:32:01;;;;;;;25.45;12.65;;;;;;;1.32;95.54;102173.81;5076889;28;20049;-73
2021/03/04 03:34:27;;;;;;;21.33;11.95;;;;;;;1.27;95.78;102167.94;5065372;28;20029;-73
2021/03/04 03:36:55;;;;;;;25.73;12.32;;;;;;;1.27;95.44;102170.50;5048529;28;20051;-73
2021/03/04 03:39:21;;;;;;;23.63;11.65;;;;;;;1.24;95.78;102162.84;5073535;28;20029;-72
2021/03/04 03:41:46;;;;;;;22.52;12.20;;;;;;;1.28;95.61;102166.19;5069459;28;20474;-73
2021/03/04 03:44:14;;;;;;;20.58;11.68;;;;;;;1.28;95.14;102161.00;5061167;28;20029;-72
2021/03/04 03:46:41;;;;;;;25.13;12.10;;;;;;;1.23;95.75;102162.94;5046973;28;20486;-73
2021/03/04 03:49:10;;;;;;;18.15;10.35;;;;;;;1.28;95.88;102153.25;5047995;28;20028;-73
2021/03/04 03:51:36;;;;;;;20.45;10.63;;;;;;;1.36;95.67;102152.13;5048171;28;20487;-72
2021/03/04 03:54:04;;;;;;;19.58;11.15;;;;;;;1.45;95.19;102155.28;5067402;28;20187;-72
2021/03/04 03:56:31;;;;;;;22.10;11.98;;;;;;;1.45;94.85;102143.22;5068768;28;20032;-73
2021/03/04 03:59:00;;;;;;;22.42;12.70;;;;;;;1.40;95.25;102141.69;5068912;28;20036;-72
2021/03/04 04:01:30;;;;;;;26.40;14.43;;;;;;;1.40;94.65;102134.75;5046424;28;20551;-72
2021/03/04 04:03:57;;;;;;;20.27;12.20;;;;;;;1.39;94.35;102138.22;5030673;28;20052;-70
2021/03/04 04:06:24;;;;;;;23.85;13.23;;;;;;;1.34;94.68;102145.31;5046742;28;20040;-72
2021/03/04 04:08:53;;;;;;;23.55;13.82;;;;;;;1.35;95.27;102150.41;5047459;28;20058;-71
2021/03/04 04:11:20;;;;;;;27.42;14.50;;;;;;;1.41;95.36;102146.75;5059606;28;20103;-73
2021/03/04 04:13:46;;;;;;;29.95;16.77;;;;;;;1.36;95.49;102146.09;5049009;28;20036;-73
2021/03/04 04:16:12;;;;;;;41.05;19.42;;;;;;;1.34;95.39;102146.16;5041407;28;20063;-73
2021/03/04 04:18:37;;;;;;;36.05;18.45;;;;;;;1.41;95.51;102136.44;5055899;28;20033;-73
2021/03/04 04:21:03;;;;;;;31.52;17.52;;;;;;;1.44;94.80;102140.66;5063609;28;20402;-72
2021/03/04 04:23:28;;;;;;;30.67;16.20;;;;;;;1.48;94.07;102135.31;5039784;28;20066;-73
2021/03/04 04:25:54;;;;;;;22.42;12.55;;;;;;;1.49;93.08;102134.44;5047219;28;20029;-73
2021/03/04 04:28:21;;;;;;;23.38;11.18;;;;;;;1.53;92.50;102133.44;5057192;28;20041;-72
2021/03/04 04:30:47;;;;;;;24.95;12.00;;;;;;;1.50;92.64;102137.84;5072510;28;20080;-73
2021/03/04 04:33:13;;;;;;;22.73;11.77;;;;;;;1.47;92.92;102136.25;5046272;28;20036;-73
2021/03/04 04:35:39;;;;;;;20.20;11.77;;;;;;;1.51;92.80;102121.47;5067918;28;20161;-74
2021/03/04 04:38:04;;;;;;;19.83;12.15;;;;;;;1.49;92.82;102113.75;5059859;28;20153;-73
2021/03/04 04:40:30;;;;;;;19.85;11.20;;;;;;;1.62;91.58;102108.13;5050260;28;20552;-73
2021/03/04 04:42:56;;;;;;;16.67;10.13;;;;;;;1.58;91.40;102102.22;5064492;28;20036;-73
2021/03/04 04:45:21;;;;;;;15.32;9.32;;;;;;;1.53;91.80;102098.97;5061628;28;20028;-73
2021/03/04 04:47:47;;;;;;;15.70;9.88;;;;;;;1.50;91.80;102092.16;5065044;28;20548;-73
2021/03/04 04:50:12;;;;;;;15.80;9.40;;;;;;;1.48;92.18;102096.53;5065318;28;20068;-73
2021/03/04 04:52:38;;;;;;;17.85;9.13;;;;;;;1.57;91.78;102095.38;5040261;28;20085;-72
2021/03/04 04:55:04;;;;;;;13.57;7.20;;;;;;;1.63;91.17;102096.91;5032813;28;20040;-73
2021/03/04 04:57:30;;;;;;;11.95;7.82;;;;;;;1.68;90.67;102090.66;5050244;28;20029;-73
2021/03/04 04:59:56;;;;;;;16.23;8.07;;;;;;;1.68;90.75;102085.47;5056430;28;20448;-73
2021/03/04 05:02:21;;;;;;;13.20;7.85;;;;;;;1.67;90.54;102083.78;5068326;28;20029;-73
2021/03/04 05:04:47;;;;;;;15.45;9.13;;;;;;;1.70;90.77;102088.84;5066525;28;20104;-73
2021/03/04 05:07:12;;;;;;;13.77;9.27;;;;;;;1.68;91.13;102082.06;5062459;28;20045;-73
2021/03/04 05:09:38;;;;;;;18.95;9.75;;;;;;;1.65;91.08;102080.41;5049127;28;20397;-73
2021/03/04 05:12:04;;;;;;;16.27;9.52;;;;;;;1.63;91.66;102077.03;5046528;28;20083;-73
2021/03/04 05:14:30;;;;;;;16.70;8.95;;;;;;;1.66;90.77;102082.09;5061528;28;20033;-74
2021/03/04 05:16:55;;;;;;;14.93;8.93;;;;;;;1.65;90.52;102075.22;5063440;28;20044;-73
2021/03/04 05:19:21;;;;;;;18.90;9.68;;;;;;;1.68;90.16;102064.78;5066304;28;20494;-73
2021/03/04 05:21:46;;;;;;;14.77;8.55;;;;;;;1.78;89.99;102073.03;5054847;28;20040;-72
2021/03/04 05:24:12;;;;;;;14.48;8.15;;;;;;;1.70;90.31;102077.66;5065924;28;20141;-73
2021/03/04 05:26:38;;;;;;;16.90;7.90;;;;;;;1.71;90.22;102067.28;5066880;28;20047;-73
2021/03/04 05:29:04;;;;;;;11.07;7.47;;;;;;;1.72;89.99;102068.09;5060485;28;20866;-73
2021/03/04 05:31:30;;;;;;;16.55;8.32;;;;;;;1.84;89.19;102064.22;5072615;28;20028;-73
2021/03/04 05:33:56;;;;;;;18.80;8.10;;;;;;;1.81;89.88;102059.13;5068385;28;20050;-73
2021/03/04 05:36:22;;;;;;;15.38;8.05;;;;;;;1.82;89.44;102061.69;5066638;28;20067;-72
2021/03/04 05:38:47;;;;;;;10.50;6.65;;;;;;;1.80;88.99;102058.31;5067867;28;20024;-72
2021/03/04 05:41:19;;;;;;;16.33;7.78;;;;;;;1.90;88.29;102059.66;5028510;28;20037;-73
2021/03/04 05:43:45;;;;;;;15.77;7.65;;;;;;;1.80;89.22;102047.97;5051813;28;20029;-73
2021/03/04 05:46:11;;;;;;;11.93;8.15;;;;;;;1.82;89.11;102059.09;5048466;28;20037;-73
2021/03/04 05:48:38;;;;;;;14.00;7.65;;;;;;;1.75;89.61;102057.63;5060505;28;20028;-72
2021/03/04 05:51:06;;;;;;;11.43;7.40;;;;;;;1.75;88.96;102058.50;5064602;28;20064;-73
2021/03/04 05:53:32;;;;;;;13.43;7.15;;;;;;;1.80;89.38;102052.28;5046863;28;20036;-73
2021/03/04 05:55:59;;;;;;;12.18;7.20;;;;;;;1.80;89.25;102039.34;5013472;28;20032;-72
2021/03/04 05:58:26;;;;;;;14.65;7.20;;;;;;;1.78;89.11;102042.00;5053266;28;20530;-73
2021/03/04 06:00:52;;;;;;;10.60;6.57;;;;;;;1.96;88.48;102048.22;5029527;28;20470;-72
2021/03/04 06:03:19;;;;;;;13.40;7.07;;;;;;;1.87;88.65;102046.84;5047641;28;20040;-71
2021/03/04 06:05:47;;;;;;;12.90;6.32;;;;;;;1.93;87.99;102045.75;5066069;28;20052;-73
2021/03/04 06:08:13;;;;;;;10.82;6.32;;;;;;;1.91;88.30;102042.38;5058321;28;20032;-73
2021/03/04 06:10:38;;;;;;;13.05;6.13;;;;;;;1.86;88.46;102039.94;5045740;28;20125;-73
2021/03/04 06:13:05;;;;;;;12.75;6.43;;;;;;;1.88;88.48;102035.56;5054041;28;20090;-72
2021/03/04 06:15:31;;;;;;;13.82;6.63;;;;;;;1.92;88.63;102033.69;5062090;28;20036;-73
2021/03/04 06:17:58;;;;;;;15.32;7.40;;;;;;;1.97;88.34;102034.38;5067706;28;20517;-73
2021/03/04 06:20:34;;;;;;;10.65;6.60;;;;;;;1.95;87.92;102039.59;5067499;28;20709;-72
2021/03/04 06:23:00;;;;;;;9.20;7.15;;;;;;;2.06;87.22;102030.59;5054526;28;20036;-72
2021/03/04 06:25:26;;;;;;;13.35;7.25;;;;;;;1.92;87.42;102037.16;5049956;28;20032;-72
2021/03/04 06:27:51;;;;;;;13.52;7.90;;;;;;;1.87;88.44;102036.47;5057688;28;20494;-73
2021/03/04 06:30:17;;;;;;;13.82;8.45;;;;;;;1.99;87.97;102034.31;5045570;28;20029;-72
2021/03/04 06:32:57;;;;;;;14.13;8.05;;;;;;;1.97;87.79;102033.53;5066312;28;20854;-73
2021/03/04 06:35:29;;;;;;;16.25;8.80;;;;;;;1.97;87.87;102025.78;5026562;28;20036;-72
2021/03/04 06:37:55;;;;;;;16.38;9.75;;;;;;;2.07;87.66;102021.91;5049157;28;20079;-73
2021/03/04 06:40:23;;;;;;;19.38;11.23;;;;;;;2.11;87.76;102026.94;5062476;28;20474;-73
2021/03/04 06:42:50;;;;;;;16.60;10.60;;;;;;;2.01;87.80;102022.16;5058764;28;20517;-72
2021/03/04 06:45:32;;;;;;;26.60;11.55;;;;;;;2.10;88.43;102026.97;5038522;28;20025;-73
2021/03/04 06:48:12;;;;;;;16.08;10.25;;;;;;;2.10;88.67;102025.22;5053623;28;20077;-72
2021/03/04 06:50:58;;;;;;;19.25;8.52;;;;;;;2.12;88.42;102027.75;5064477;28;20078;-72
2021/03/04 06:53:26;;;;;;;16.25;8.38;;;;;;;2.21;87.92;102027.41;5063801;28;20035;-72
2021/03/04 06:55:57;;;;;;;11.85;6.97;;;;;;;2.14;88.19;102020.78;5061820;28;20728;-73
2021/03/04 06:58:24;;;;;;;11.80;6.82;;;;;;;2.13;87.78;102035.47;5068390;28;20477;-73
2021/03/04 07:01:03;;;;;;;12.93;6.35;;;;;;;2.08;88.36;102027.03;5062391;28;20036;-72
2021/03/04 07:03:40;;;;;;;11.77;6.35;;;;;;;2.19;88.16;102036.97;5049856;28;20044;-73
2021/03/04 07:06:08;;;;;;;13.52;6.95;;;;;;;2.25;87.64;102031.56;5032111;28;20044;-72
2021/03/04 07:08:36;;;;;;;10.07;6.13;;;;;;;2.34;87.28;102032.94;5061871;28;20043;-73
2021/03/04 07:11:04;;;;;;;11.18;5.45;;;;;;;2.27;87.04;102037.50;5065576;28;20037;-72
2021/03/04 07:13:31;;;;;;;14.43;5.45;;;;;;;2.27;87.26;102034.91;5048043;28;20564;-73
2021/03/04 07:16:04;;;;;;;12.65;5.72;;;;;;;2.24;87.68;102035.06;5054473;28;20406;-73
2021/03/04 07:18:33;;;;;;;9.98;5.65;;;;;;;2.45;87.03;102042.84;5032886;28;20029;-73
2021/03/04 07:21:01;;;;;;;11.20;5.03;;;;;;;2.45;87.15;102040.25;5049769;28;20040;-72
2021/03/04 07:23:27;;;;;;;15.70;6.10;;;;;;;2.38;87.81;102028.47;5032889;28;20029;-71
2021/03/04 07:25:54;;;;;;;10.07;5.63;;;;;;;2.50;86.20;102028.81;5048706;28;20383;-73
2021/03/04 07:28:20;;;;;;;15.50;5.65;;;;;;;2.54;86.73;102029.53;5056747;28;20041;-72
2021/03/04 07:30:46;;;;;;;13.65;5.15;;;;;;;2.56;85.98;102029.47;5082544;28;20032;-73
2021/03/04 07:33:12;;;;;;;11.13;5.60;;;;;;;2.57;86.56;102033.75;5035120;28;20051;-72
2021/03/04 07:35:38;;;;;;;9.30;5.28;;;;;;;2.60;85.88;102036.19;5065226;28;20040;-73
2021/03/04 07:38:07;;;;;;;14.52;5.70;;;;;;;2.55;86.07;102031.22;5067952;28;20036;-71
2021/03/04 07:40:32;;;;;;;11.13;5.60;;;;;;;2.70;85.23;102027.16;5047739;28;20499;-72
2021/03/04 07:43:03;;;;;;;14.48;5.97;;;;;;;2.65;85.32;102023.91;5031934;28;20167;-73
2021/03/04 07:45:29;;;;;;;20.85;7.45;;;;;;;2.64;85.40;102033.44;5049542;28;20067;-72
2021/03/04 07:47:54;;;;;;;15.63;7.05;;;;;;;2.72;84.93;102033.13;5064811;28;20076;-73
2021/03/04 07:50:23;;;;;;;11.50;6.35;;;;;;;2.73;85.26;102039.97;5051362;28;20036;-72
2021/03/04 07:52:49;;;;;;;10.88;4.68;;;;;;;2.79;84.80;102024.19;5068507;28;20500;-73
2021/03/04 07:55:16;;;;;;;12.00;4.18;;;;;;;2.73;84.49;102025.28;5069554;28;20037;-73
2021/03/04 07:57:47;;;;;;;12.50;4.50;;;;;;;2.78;85.26;102035.44;5068361;28;20488;-73
2021/03/04 08:00:14;;;;;;;8.73;5.22;;;;;;;2.81;85.35;102042.25;5062590;28;20025;-73
2021/03/04 08:02:42;;;;;;;12.95;5.63;;;;;;;2.81;85.68;102042.25;5063651;28;20547;-72
2021/03/04 08:05:19;;;;;;;11.15;5.32;;;;;;;2.92;85.15;102040.91;5066897;28;20055;-73
2021/03/04 08:07:49;;;;;;;8.00;5.13;;;;;;;2.85;85.00;102036.03;5057819;28;20033;-72
2021/03/04 08:10:20;;;;;;;13.82;5.85;;;;;;;2.99;83.96;102036.28;5059191;28;20078;-73
2021/03/04 08:12:51;;;;;;;13.50;5.25;;;;;;;2.98;84.56;102026.84;5065951;28;20515;-73
2021/03/04 08:15:19;;;;;;;10.80;5.25;;;;;;;3.02;84.69;102022.34;5068403;28;20086;-72
2021/03/04 08:17:45;;;;;;;14.05;5.93;;;;;;;3.02;84.01;102018.00;5068150;28;20029;-73
2021/03/04 08:20:17;;;;;;;8.13;5.43;;;;;;;3.03;84.20;102019.72;5067498;28;20039;-72
2021/03/04 08:23:03;;;;;;;13.20;5.32;;;;;;;3.19;83.36;102026.81;5068510;28;20699;-73
2021/03/04 08:25:30;;;;;;;10.60;4.97;;;;;;;3.12;83.65;102015.84;5050256;28;20496;-72
2021/03/04 08:27:59;;;;;;;7.65;4.50;;;;;;;3.05;83.85;102015.28;5051686;28;20036;-72
2021/03/04 08:30:32;;;;;;;9.90;4.90;;;;;;;2.99;84.57;102014.69;5072068;28;20030;-72
2021/03/04 08:33:03;;;;;;;10.55;4.55;;;;;;;3.00;84.73;102008.63;5077487;28;20072;-72
2021/03/04 08:35:30;;;;;;;15.68;5.50;;;;;;;3.05;84.30;102002.34;5067825;28;20390;-73
2021/03/04 08:38:15;;;;;;;12.90;4.40;;;;;;;3.18;83.81;102007.78;5057034;28;20036;-72
2021/03/04 08:40:52;;;;;;;15.00;4.05;;;;;;;3.24;83.36;101988.53;5062139;28;20048;-72
2021/03/04 08:43:23;;;;;;;6.68;3.53;;;;;;;3.24;82.86;101996.31;5057513;28;20539;-72
2021/03/04 08:45:57;;;;;;;9.52;4.35;;;;;;;3.37;83.31;101992.28;5065054;28;20044;-72
2021/03/04 08:48:23;;;;;;;13.38;4.53;;;;;;;3.33;83.22;101989.88;5068321;28;20489;-72
2021/03/04 08:50:51;;;;;;;13.13;4.00;;;;;;;3.44;83.45;101985.88;5066838;28;20513;-73
2021/03/04 08:53:24;;;;;;;8.52;3.88;;;;;;;3.46;83.22;101994.44;5067224;28;20090;-72
2021/03/04 08:55:53;;;;;;;11.52;4.00;;;;;;;3.48;82.71;101984.84;5065300;28;20123;-72
2021/03/04 08:58:29;;;;;;;12.20;4.03;;;;;;;3.48;82.01;101982.25;5067642;28;20090;-72
2021/03/04 09:01:03;;;;;;;10.82;4.32;;;;;;;3.44;82.43;101985.06;5067016;28;20340;-72
2021/03/04 09:03:33;;;;;;;13.48;4.40;;;;;;;3.57;82.41;101990.53;5067057;28;20082;-72
2021/03/04 09:06:16;;;;;;;13.73;4.18;;;;;;;3.58;81.63;101980.09;5047436;28;20082;-72
2021/03/04 09:08:49;;;;;;;8.48;4.07;;;;;;;3.64;81.67;101991.94;5065807;28;20035;-72
2021/03/04 09:11:30;;;;;;;12.00;4.07;;;;;;;3.57;82.43;101983.56;5064055;28;20123;-72
2021/03/04 09:14:09;;;;;;;14.50;4.03;;;;;;;3.64;82.44;101989.34;5068274;28;20401;-71
2021/03/04 09:16:39;;;;;;;14.55;4.15;;;;;;;3.66;81.95;101980.56;5068310;28;20036;-72
2021/03/04 09:19:04;;;;;;;10.85;4.30;;;;;;;3.64;82.39;101979.78;5067365;28;20024;-72
2021/03/04 09:21:31;;;;;;;9.27;4.15;;;;;;;3.65;82.49;101973.66;5062351;28;20627;-72
2021/03/04 09:23:57;;;;;;;14.27;4.15;;;;;;;3.76;82.02;101973.19;5064917;28;20039;-72
2021/03/04 09:26:32;;;;;;;7.03;4.07;;;;;;;3.82;82.17;101977.25;5064639;28;20033;-73
2021/03/04 09:29:00;;;;;;;12.50;4.20;;;;;;;3.78;82.08;101978.31;5062464;28;20075;-73
2021/03/04 09:31:25;;;;;;;13.48;3.50;;;;;;;3.84;81.39;101968.50;5068101;28;20480;-73
2021/03/04 09:34:03;;;;;;;8.07;3.60;;;;;;;3.80;81.78;101966.09;5064450;28;20537;-73
2021/03/04 09:36:29;;;;;;;13.35;4.47;;;;;;;3.77;82.59;101966.22;5068677;28;20052;-73
2021/03/04 09:38:56;;;;;;;12.35;4.00;;;;;;;3.85;81.86;101964.97;5068162;28;20036;-73
2021/03/04 09:41:24;;;;;;;15.38;5.15;;;;;;;3.86;81.63;101963.19;5047025;28;20052;-72
2021/03/04 09:44:00;;;;;;;12.32;4.47;;;;;;;3.98;81.55;101959.19;5046980;28;20036;-71
2021/03/04 09:46:39;;;;;;;12.02;4.32;;;;;;;3.99;81.03;101955.66;5046289;28;20032;-72
2021/03/04 09:49:16;;;;;;;11.45;3.95;;;;;;;4.00;81.56;101954.75;5059859;28;20406;-72
2021/03/04 09:51:43;;;;;;;13.98;4.45;;;;;;;3.96;81.70;101954.06;5046872;28;20045;-72
2021/03/04 09:54:10;;;;;;;19.38;4.50;;;;;;;4.07;80.99;101957.00;5057353;28;20102;-72
2021/03/04 09:56:35;;;;;;;14.15;4.05;;;;;;;4.10;81.63;101958.59;5067515;28;20107;-73
2021/03/04 09:59:01;;;;;;;15.82;4.50;;;;;;;4.26;80.65;101961.28;5068285;28;20148;-72
2021/03/04 10:01:27;;;;;;;16.48;5.13;;;;;;;4.24;80.88;101950.97;5063918;28;20040;-72
2021/03/04 10:03:59;;;;;;;12.50;4.70;;;;;;;4.26;81.23;101951.72;5066285;28;20524;-72
2021/03/04 10:06:26;;;;;;;14.68;4.70;;;;;;;4.34;80.37;101945.31;5063435;28;20063;-72
2021/03/04 10:08:53;;;;;;;10.27;4.70;;;;;;;4.39;81.25;101945.91;5066369;28;20064;-72
2021/03/04 10:11:21;;;;;;;13.02;4.70;;;;;;;4.56;80.05;101950.25;5069558;28;20112;-72
2021/03/04 10:13:47;;;;;;;15.45;4.95;;;;;;;4.53;80.05;101953.03;5074252;28;20068;-72
2021/03/04 10:16:13;;;;;;;14.77;4.90;;;;;;;4.53;80.48;101947.84;5070938;28;20386;-73
2021/03/04 10:18:46;;;;;;;13.02;5.25;;;;;;;4.64;80.79;101945.53;5073842;28;20366;-72
2021/03/04 10:21:13;;;;;;;17.25;5.20;;;;;;;4.70;79.26;101941.78;5072533;28;20086;-72
2021/03/04 10:23:38;;;;;;;13.95;5.50;;;;;;;4.80;78.77;101929.97;5063660;28;20040;-72
2021/03/04 10:26:04;;;;;;;21.48;6.18;;;;;;;4.85;79.18;101940.97;5055300;28;20032;-72
2021/03/04 10:28:30;;;;;;;12.75;5.55;;;;;;;4.93;78.94;101938.81;5069221;28;20032;-72
2021/03/04 10:30:55;;;;;;;14.85;6.00;;;;;;;4.99;79.09;101945.44;5070126;28;20100;-72
2021/03/04 10:33:21;;;;;;;12.85;5.00;;;;;;;5.02;78.20;101943.53;5052945;28;20094;-72
2021/03/04 10:35:46;;;;;;;12.20;4.60;;;;;;;4.93;78.02;101948.38;5069994;28;20101;-71
2021/03/04 10:38:12;;;;;;;11.48;4.55;;;;;;;4.95;77.02;101947.34;5060875;28;20056;-72
2021/03/04 10:40:38;;;;;;;15.73;4.30;;;;;;;4.88;77.69;101953.81;5064746;28;20036;-72
2021/03/04 10:43:03;;;;;;;18.52;4.10;;;;;;;4.68;77.88;101953.06;5068197;28;20032;-70
2021/03/04 10:45:29;;;;;;;10.52;4.10;;;;;;;4.83;78.22;101961.84;5065666;28;20090;-71
2021/03/04 10:47:54;;;;;;;16.92;4.18;;;;;;;4.86;77.81;101956.50;5065476;28;20047;-71
2021/03/04 10:50:22;;;;;;;10.82;4.30;;;;;;;4.81;77.94;101961.09;5067335;28;20032;-71
2021/03/04 10:52:48;;;;;;;16.70;5.03;;;;;;;4.73;78.07;101959.78;5059799;28;20487;-71
2021/03/04 10:55:15;;;;;;;17.60;4.35;;;;;;;4.66;78.89;101961.88;5069793;28;20423;-71
2021/03/04 10:57:41;;;;;;;10.93;4.30;;;;;;;4.73;78.98;101962.38;5052392;28;20039;-72
2021/03/04 11:00:09;;;;;;;14.25;4.25;;;;;;;4.75;78.58;101958.81;5072542;28;20044;-71
2021/03/04 11:02:36;;;;;;;11.48;4.40;;;;;;;4.87;78.76;101960.75;5073853;28;20032;-71
2021/03/04 11:05:03;;;;;;;11.52;4.00;;;;;;;4.88;78.17;101957.25;5063558;28;20119;-72
2021/03/04 11:07:28;;;;;;;12.20;3.88;;;;;;;4.90;78.58;101956.31;5062949;28;20045;-71
2021/03/04 11:09:54;;;;;;;14.88;4.45;;;;;;;4.85;78.74;101949.59;5065700;28;20485;-71
2021/03/04 11:12:20;;;;;;;17.33;4.40;;;;;;;5.01;77.90;101948.78;5066023;28;20090;-72
2021/03/04 11:14:45;;;;;;;10.15;4.65;;;;;;;4.84;79.34;101942.75;5051008;28;20071;-72
2021/03/04 11:17:12;;;;;;;18.38;4.93;;;;;;;4.93;78.33;101951.81;5068317;28;20066;-71
2021/03/04 11:19:37;;;;;;;14.85;5.20;;;;;;;4.77;78.88;101950.94;5051582;28;20960;-71
2021/03/04 11:22:04;;;;;;;14.60;5.28;;;;;;;4.94;78.22;101943.09;5063472;28;20025;-71
2021/03/04 11:24:29;;;;;;;18.73;5.00;;;;;;;4.92;77.42;101950.13;5048573;28;20446;-72
2021/03/04 11:26:55;;;;;;;12.13;4.85;;;;;;;4.95;78.04;101942.16;5050391;28;20077;-71
2021/03/04 11:29:20;;;;;;;14.13;5.45;;;;;;;4.86;79.48;101938.31;5059772;28;20052;-71